Time;durP1;ratioP1;P1;durP2;ratioP2;P2;SDS_P1;SDS_P2;PMS_P1;PMS_P2;Temp;Humidity;BMP_temperature;BMP_pressure;BME280_temperature;BME280_humidity;BME280_pressure;Samples;Min_cycle;Max_cycle;Signal;HPM_P1;HPM_P2
2022/11/14 00:01:11;;;;;;;28.47;14.77;;;;;;;;;;5026771;28;20033;-76
2022/11/14 00:03:38;;;;;;;21.03;12.60;;;;;;;;;;5015352;28;20286;-76
2022/11/14 00:06:06;;;;;;;20.03;13.37;;;;;;;;;;5026243;28;20276;-74
2022/11/14 00:08:32;;;;;;;18.73;12.47;;;;;;;;;;5021682;28;20656;-76
2022/11/14 00:10:58;;;;;;;20.77;12.63;;;;;;;;;;5022897;28;20741;-76
2022/11/14 00:13:23;;;;;;;21.67;12.00;;;;;;;;;;5016564;28;20034;-76
2022/11/14 00:15:53;;;;;;;14.73;10.27;;;;;;;;;;5014764;28;20054;-76
2022/11/14 00:18:19;;;;;;;21.40;12.53;;;;;;;;;;5028109;28;20033;-76
2022/11/14 00:20:51;;;;;;;15.20;10.77;;;;;;;;;;5014471;28;20338;-76
2022/11/14 00:23:18;;;;;;;21.73;13.07;;;;;;;;;;5012697;28;20264;-76
2022/11/14 00:25:44;;;;;;;19.87;12.60;;;;;;;;;;5011413;28;20105;-75
2022/11/14 00:28:10;;;;;;;18.50;11.87;;;;;;;;;;5014401;28;20099;-76
2022/11/14 00:30:41;;;;;;;19.97;11.00;;;;;;;;;;5012895;28;20034;-76
2022/11/14 00:33:09;;;;;;;21.70;12.97;;;;;;;;;;5012203;28;21602;-77
2022/11/14 00:35:35;;;;;;;20.40;12.87;;;;;;;;;;5014605;28;20284;-75
2022/11/14 00:38:01;;;;;;;22.73;13.73;;;;;;;;;;5014029;28;20042;-76
2022/11/14 00:40:27;;;;;;;21.20;13.03;;;;;;;;;;5019330;28;20084;-75
2022/11/14 00:42:54;;;;;;;21.60;13.93;;;;;;;;;;5024560;28;20636;-76
2022/11/14 00:45:21;;;;;;;23.63;13.70;;;;;;;;;;5024464;28;20168;-76
2022/11/14 00:47:48;;;;;;;22.57;14.27;;;;;;;;;;5024273;28;20391;-75
2022/11/14 00:50:16;;;;;;;21.80;14.13;;;;;;;;;;5016817;28;20276;-76
2022/11/14 00:52:42;;;;;;;22.30;14.00;;;;;;;;;;5033951;28;20384;-74
2022/11/14 00:55:08;;;;;;;21.13;13.50;;;;;;;;;;5019686;28;20343;-76
2022/11/14 00:57:34;;;;;;;25.73;13.87;;;;;;;;;;5025216;28;20061;-76
2022/11/14 01:00:00;;;;;;;19.67;13.53;;;;;;;;;;5025617;28;20288;-75
2022/11/14 01:02:26;;;;;;;23.70;14.30;;;;;;;;;;5016942;28;20497;-76
2022/11/14 01:04:52;;;;;;;21.27;13.37;;;;;;;;;;5025634;28;20033;-76
2022/11/14 01:07:18;;;;;;;20.43;13.20;;;;;;;;;;5016928;28;20045;-75
2022/11/14 01:09:44;;;;;;;19.37;13.03;;;;;;;;;;5029681;28;20280;-75
2022/11/14 01:12:11;;;;;;;17.77;11.23;;;;;;;;;;5024701;28;20366;-75
2022/11/14 01:14:38;;;;;;;17.87;11.20;;;;;;;;;;5017178;28;20030;-76
2022/11/14 01:17:07;;;;;;;18.63;12.37;;;;;;;;;;5030684;28;20284;-76
2022/11/14 01:19:33;;;;;;;19.97;11.87;;;;;;;;;;5015895;28;20276;-76
2022/11/14 01:21:59;;;;;;;21.00;11.60;;;;;;;;;;5018248;28;20331;-76
2022/11/14 01:24:25;;;;;;;19.47;12.23;;;;;;;;;;5016914;28;20640;-76
2022/11/14 01:26:54;;;;;;;18.27;11.90;;;;;;;;;;5014667;28;20030;-76
2022/11/14 01:29:20;;;;;;;19.53;11.17;;;;;;;;;;5016603;28;20021;-75
2022/11/14 01:31:46;;;;;;;15.93;10.53;;;;;;;;;;5017405;28;20296;-77
2022/11/14 01:34:14;;;;;;;19.63;10.47;;;;;;;;;;5025573;28;20026;-76
2022/11/14 01:36:40;;;;;;;15.77;9.70;;;;;;;;;;5018180;28;20284;-76
2022/11/14 01:39:09;;;;;;;20.37;10.23;;;;;;;;;;5018190;28;20291;-75
2022/11/14 01:41:35;;;;;;;13.40;9.03;;;;;;;;;;5015708;28;20065;-75
2022/11/14 01:44:01;;;;;;;14.50;9.37;;;;;;;;;;5025235;28;20748;-76
2022/11/14 01:46:32;;;;;;;12.40;8.40;;;;;;;;;;5026695;28;20287;-75
2022/11/14 01:49:00;;;;;;;12.37;8.17;;;;;;;;;;5016810;28;20032;-76
2022/11/14 01:51:29;;;;;;;13.50;8.87;;;;;;;;;;5024212;28;20264;-75
2022/11/14 01:53:56;;;;;;;13.67;8.63;;;;;;;;;;5013677;28;20288;-76
2022/11/14 01:56:28;;;;;;;13.97;8.27;;;;;;;;;;5023077;28;20295;-76
2022/11/14 01:58:58;;;;;;;15.00;8.83;;;;;;;;;;5032031;28;20370;-76
2022/11/14 02:01:24;;;;;;;14.97;8.47;;;;;;;;;;5031977;28;20304;-75
2022/11/14 02:03:52;;;;;;;12.73;8.07;;;;;;;;;;5018729;28;20366;-76
2022/11/14 02:06:19;;;;;;;15.30;8.90;;;;;;;;;;5014624;28;20750;-75
2022/11/14 02:08:46;;;;;;;14.43;9.47;;;;;;;;;;5015111;28;20355;-75
2022/11/14 02:11:12;;;;;;;13.00;8.63;;;;;;;;;;5015369;28;20283;-76
2022/11/14 02:13:39;;;;;;;16.53;10.23;;;;;;;;;;5021705;28;20277;-76
2022/11/14 02:16:06;;;;;;;10.93;7.83;;;;;;;;;;5025410;28;20281;-76
2022/11/14 02:18:34;;;;;;;13.93;8.87;;;;;;;;;;5015250;28;20752;-77
2022/11/14 02:21:02;;;;;;;17.80;8.67;;;;;;;;;;5022963;28;20289;-75
2022/11/14 02:23:30;;;;;;;16.87;9.23;;;;;;;;;;5015471;28;20276;-76
2022/11/14 02:25:56;;;;;;;19.90;9.70;;;;;;;;;;5028301;28;20281;-77
2022/11/14 02:28:22;;;;;;;13.90;9.27;;;;;;;;;;5013524;28;20288;-76
2022/11/14 02:30:51;;;;;;;14.77;9.23;;;;;;;;;;5016947;28;20277;-76
2022/11/14 02:33:17;;;;;;;16.60;10.43;;;;;;;;;;5018149;28;20271;-75
2022/11/14 02:35:43;;;;;;;16.67;9.80;;;;;;;;;;5029543;28;20787;-76
2022/11/14 02:38:12;;;;;;;15.87;10.10;;;;;;;;;;5017264;28;20030;-76
2022/11/14 02:40:38;;;;;;;16.83;8.90;;;;;;;;;;5016809;28;20924;-76
2022/11/14 02:43:04;;;;;;;14.33;9.30;;;;;;;;;;5026544;28;20288;-76
2022/11/14 02:45:30;;;;;;;18.47;10.13;;;;;;;;;;5024385;28;20087;-76
2022/11/14 02:47:56;;;;;;;17.60;9.77;;;;;;;;;;5028238;28;20293;-76
2022/11/14 02:50:22;;;;;;;14.60;9.57;;;;;;;;;;5015122;28;20037;-76
2022/11/14 02:52:48;;;;;;;13.57;8.80;;;;;;;;;;5024804;28;20132;-75
2022/11/14 02:55:16;;;;;;;17.07;9.53;;;;;;;;;;5015277;28;20033;-76
2022/11/14 02:57:42;;;;;;;13.10;8.43;;;;;;;;;;5022508;28;20312;-76
2022/11/14 03:00:08;;;;;;;13.07;8.37;;;;;;;;;;5024826;28;20316;-75
2022/11/14 03:02:34;;;;;;;12.70;8.37;;;;;;;;;;5025895;28;20034;-76
2022/11/14 03:05:00;;;;;;;12.73;8.77;;;;;;;;;;5015374;28;20423;-76
2022/11/14 03:07:26;;;;;;;13.07;8.60;;;;;;;;;;5023213;28;20033;-75
2022/11/14 03:09:52;;;;;;;14.93;8.03;;;;;;;;;;5013229;28;20379;-76
2022/11/14 03:12:18;;;;;;;12.60;7.87;;;;;;;;;;5028025;28;20038;-76
2022/11/14 03:14:45;;;;;;;11.70;7.50;;;;;;;;;;5026801;28;20038;-75
2022/11/14 03:17:11;;;;;;;12.83;7.60;;;;;;;;;;5014314;28;20371;-76
2022/11/14 03:19:37;;;;;;;11.27;7.37;;;;;;;;;;5015552;28;20287;-75
2022/11/14 03:22:03;;;;;;;11.17;7.27;;;;;;;;;;5029191;28;20288;-76
2022/11/14 03:24:29;;;;;;;13.83;7.70;;;;;;;;;;5022837;28;20295;-77
2022/11/14 03:26:55;;;;;;;12.03;8.53;;;;;;;;;;5022640;28;20292;-75
2022/11/14 03:29:21;;;;;;;11.97;7.57;;;;;;;;;;5014734;28;20300;-75
2022/11/14 03:31:47;;;;;;;11.43;8.07;;;;;;;;;;5014928;28;20319;-76
2022/11/14 03:34:16;;;;;;;12.33;7.80;;;;;;;;;;5015221;28;20168;-75
2022/11/14 03:36:42;;;;;;;12.53;8.00;;;;;;;;;;5015901;28;20272;-76
2022/11/14 03:39:08;;;;;;;14.73;7.67;;;;;;;;;;5014719;28;20370;-76
2022/11/14 03:41:34;;;;;;;12.70;7.73;;;;;;;;;;5026036;28;20700;-76
2022/11/14 03:44:00;;;;;;;12.40;8.00;;;;;;;;;;5013179;28;20243;-76
2022/11/14 03:46:26;;;;;;;16.13;8.33;;;;;;;;;;5024021;28;20288;-76
2022/11/14 03:48:54;;;;;;;14.30;8.30;;;;;;;;;;5016012;28;20485;-76
2022/11/14 03:51:20;;;;;;;11.63;7.70;;;;;;;;;;5013318;28;20281;-75
2022/11/14 03:53:48;;;;;;;10.50;8.00;;;;;;;;;;5024203;28;20292;-77
2022/11/14 03:56:14;;;;;;;12.50;7.87;;;;;;;;;;5013513;28;20276;-75
2022/11/14 03:58:40;;;;;;;14.17;8.03;;;;;;;;;;5015267;28;20355;-76
2022/11/14 04:01:06;;;;;;;10.53;7.53;;;;;;;;;;5013493;28;20720;-76
2022/11/14 04:03:35;;;;;;;14.47;8.47;;;;;;;;;;5029398;28;20272;-76
2022/11/14 04:06:02;;;;;;;13.33;8.47;;;;;;;;;;5032891;28;20293;-76
2022/11/14 04:08:30;;;;;;;12.60;7.27;;;;;;;;;;5022242;28;20354;-76
2022/11/14 04:10:56;;;;;;;12.03;8.00;;;;;;;;;;5024161;28;20371;-76
2022/11/14 04:13:22;;;;;;;13.30;8.30;;;;;;;;;;5023470;28;22148;-76
2022/11/14 04:15:54;;;;;;;13.20;8.10;;;;;;;;;;5022583;28;20045;-75
2022/11/14 04:18:20;;;;;;;13.23;7.77;;;;;;;;;;5031000;28;20094;-76
2022/11/14 04:20:46;;;;;;;11.03;6.93;;;;;;;;;;5017549;28;20442;-76
2022/11/14 04:23:12;;;;;;;13.90;6.73;;;;;;;;;;5018742;28;20057;-75
2022/11/14 04:25:38;;;;;;;10.30;7.00;;;;;;;;;;5016725;28;20046;-77
2022/11/14 04:28:04;;;;;;;9.67;7.03;;;;;;;;;;5017958;28;20088;-75
2022/11/14 04:30:30;;;;;;;11.07;6.90;;;;;;;;;;5017480;28;20116;-76
2022/11/14 04:33:01;;;;;;;13.17;6.27;;;;;;;;;;5018078;28;20116;-76
2022/11/14 04:35:29;;;;;;;10.23;6.90;;;;;;;;;;5026496;28;20034;-76
2022/11/14 04:37:55;;;;;;;10.27;7.13;;;;;;;;;;5018094;28;20029;-75
2022/11/14 04:40:22;;;;;;;9.97;6.63;;;;;;;;;;5010306;28;20049;-77
2022/11/14 04:42:48;;;;;;;12.20;7.30;;;;;;;;;;5016620;28;20038;-75
2022/11/14 04:45:14;;;;;;;9.90;6.20;;;;;;;;;;5015438;28;20033;-76
2022/11/14 04:47:43;;;;;;;16.80;6.63;;;;;;;;;;5017741;28;20056;-76
2022/11/14 04:50:11;;;;;;;15.93;7.63;;;;;;;;;;5034778;28;20025;-77
2022/11/14 04:52:37;;;;;;;12.00;7.67;;;;;;;;;;5024203;28;20038;-76
2022/11/14 04:55:03;;;;;;;11.47;6.93;;;;;;;;;;5029437;28;20044;-76
2022/11/14 04:57:29;;;;;;;11.57;7.40;;;;;;;;;;5015196;28;20068;-76
2022/11/14 04:59:55;;;;;;;11.37;6.63;;;;;;;;;;5015278;28;20066;-75
2022/11/14 05:02:22;;;;;;;12.00;7.50;;;;;;;;;;5026313;28;21718;-77
2022/11/14 05:04:49;;;;;;;11.53;7.60;;;;;;;;;;5026122;28;20042;-75
2022/11/14 05:07:15;;;;;;;13.50;7.63;;;;;;;;;;5030876;28;20048;-76
2022/11/14 05:09:43;;;;;;;13.43;7.03;;;;;;;;;;5018729;28;20390;-76
2022/11/14 05:12:11;;;;;;;12.03;7.30;;;;;;;;;;5018819;28;20280;-76
2022/11/14 05:14:38;;;;;;;12.40;7.30;;;;;;;;;;5018737;28;20029;-76
2022/11/14 05:17:04;;;;;;;12.33;7.73;;;;;;;;;;5028891;28;20288;-76
2022/11/14 05:19:32;;;;;;;11.87;7.43;;;;;;;;;;5016926;28;20034;-75
2022/11/14 05:21:58;;;;;;;13.60;8.03;;;;;;;;;;5015529;28;20037;-77
2022/11/14 05:24:25;;;;;;;14.73;8.10;;;;;;;;;;5022418;28;20040;-75
2022/11/14 05:26:51;;;;;;;15.23;8.87;;;;;;;;;;5016146;28;20426;-76
2022/11/14 05:29:17;;;;;;;13.70;8.37;;;;;;;;;;5015462;28;20113;-77
2022/11/14 05:31:43;;;;;;;19.17;9.03;;;;;;;;;;5016772;28;20026;-76
2022/11/14 05:34:09;;;;;;;15.70;8.90;;;;;;;;;;5018329;28;20033;-77
2022/11/14 05:36:35;;;;;;;16.63;9.37;;;;;;;;;;5023928;28;20037;-76
2022/11/14 05:39:01;;;;;;;13.07;9.00;;;;;;;;;;5016052;28;20033;-76
2022/11/14 05:41:27;;;;;;;16.27;8.97;;;;;;;;;;5023647;28;20033;-76
2022/11/14 05:43:55;;;;;;;12.17;8.33;;;;;;;;;;5022974;28;20112;-76
2022/11/14 05:46:21;;;;;;;14.50;8.30;;;;;;;;;;5022565;28;20125;-76
2022/11/14 05:48:47;;;;;;;14.80;9.20;;;;;;;;;;5027806;28;20045;-76
2022/11/14 05:51:13;;;;;;;13.10;8.37;;;;;;;;;;5032914;28;20040;-74
2022/11/14 05:53:39;;;;;;;12.90;8.57;;;;;;;;;;5014997;28;20033;-76
2022/11/14 05:56:09;;;;;;;11.47;8.13;;;;;;;;;;5032755;28;20037;-77
2022/11/14 05:58:35;;;;;;;15.20;7.83;;;;;;;;;;5015688;28;20041;-77
2022/11/14 06:01:04;;;;;;;15.30;9.33;;;;;;;;;;5028613;28;20041;-76
2022/11/14 06:03:34;;;;;;;13.93;8.43;;;;;;;;;;5015898;28;20069;-75
2022/11/14 06:06:04;;;;;;;12.43;8.13;;;;;;;;;;5022790;28;20474;-76
2022/11/14 06:08:30;;;;;;;14.20;8.30;;;;;;;;;;5015922;28;21581;-77
2022/11/14 06:10:56;;;;;;;15.37;9.27;;;;;;;;;;5023244;28;20026;-76
2022/11/14 06:13:23;;;;;;;14.57;9.57;;;;;;;;;;5032936;28;20450;-76
2022/11/14 06:15:49;;;;;;;14.00;8.70;;;;;;;;;;5015602;28;20204;-77
2022/11/14 06:18:15;;;;;;;13.00;8.97;;;;;;;;;;5013931;28;20690;-77
2022/11/14 06:20:41;;;;;;;15.93;9.40;;;;;;;;;;5016604;28;20463;-76
2022/11/14 06:23:10;;;;;;;20.13;10.00;;;;;;;;;;5028480;28;20037;-77
2022/11/14 06:25:36;;;;;;;14.93;9.30;;;;;;;;;;5014603;28;20030;-76
2022/11/14 06:28:04;;;;;;;22.10;10.43;;;;;;;;;;5022045;28;20485;-76
2022/11/14 06:30:30;;;;;;;21.23;10.83;;;;;;;;;;5026065;28;20040;-77
2022/11/14 06:32:58;;;;;;;16.20;10.23;;;;;;;;;;5016461;28;20033;-76
2022/11/14 06:35:24;;;;;;;19.70;10.97;;;;;;;;;;5014279;28;20055;-75
2022/11/14 06:37:50;;;;;;;20.67;11.97;;;;;;;;;;5026254;28;20065;-76
2022/11/14 06:40:16;;;;;;;20.80;11.17;;;;;;;;;;5021411;28;20464;-76
2022/11/14 06:42:42;;;;;;;15.17;9.77;;;;;;;;;;5011605;28;20043;-76
2022/11/14 06:45:08;;;;;;;21.27;10.53;;;;;;;;;;5010888;28;20037;-77
2022/11/14 06:47:34;;;;;;;16.43;9.83;;;;;;;;;;5012376;28;20230;-76
2022/11/14 06:50:00;;;;;;;15.37;10.20;;;;;;;;;;5012391;28;20022;-75
2022/11/14 06:52:26;;;;;;;19.93;10.20;;;;;;;;;;5014070;28;20061;-75
2022/11/14 06:54:52;;;;;;;15.67;10.37;;;;;;;;;;5016093;28;20410;-76
2022/11/14 06:57:18;;;;;;;22.90;12.00;;;;;;;;;;5027559;28;20041;-76
2022/11/14 06:59:44;;;;;;;22.93;10.70;;;;;;;;;;5013929;28;20080;-77
2022/11/14 07:02:11;;;;;;;21.73;12.83;;;;;;;;;;5013621;28;20067;-76
2022/11/14 07:04:38;;;;;;;17.90;11.27;;;;;;;;;;5028831;28;20045;-76
2022/11/14 07:07:04;;;;;;;17.63;10.97;;;;;;;;;;5005878;28;20167;-75
2022/11/14 07:09:30;;;;;;;17.23;11.23;;;;;;;;;;5023599;28;20042;-77
2022/11/14 07:11:56;;;;;;;20.27;12.60;;;;;;;;;;5014328;28;20036;-76
2022/11/14 07:14:22;;;;;;;19.07;11.90;;;;;;;;;;5012789;28;20033;-77
2022/11/14 07:16:48;;;;;;;22.40;12.37;;;;;;;;;;5026908;28;20072;-77
2022/11/14 07:19:14;;;;;;;19.70;12.37;;;;;;;;;;5015047;28;20035;-75
2022/11/14 07:21:42;;;;;;;21.10;12.97;;;;;;;;;;5020526;28;20073;-75
2022/11/14 07:24:08;;;;;;;26.10;13.17;;;;;;;;;;5023238;28;20029;-76
2022/11/14 07:26:35;;;;;;;23.40;13.30;;;;;;;;;;5012229;28;20045;-76
2022/11/14 07:29:01;;;;;;;24.43;14.73;;;;;;;;;;5025953;28;20026;-77
2022/11/14 07:31:27;;;;;;;28.03;14.80;;;;;;;;;;5014312;28;20034;-76
2022/11/14 07:33:56;;;;;;;32.37;17.00;;;;;;;;;;5012773;28;20468;-77
2022/11/14 07:36:25;;;;;;;25.30;14.87;;;;;;;;;;5013044;28;20037;-76
2022/11/14 07:38:53;;;;;;;28.80;16.43;;;;;;;;;;5012628;28;20034;-76
2022/11/14 07:41:19;;;;;;;27.13;16.70;;;;;;;;;;5012132;28;20041;-76
2022/11/14 07:43:45;;;;;;;30.13;16.57;;;;;;;;;;5015896;28;20026;-75
2022/11/14 07:46:16;;;;;;;26.47;16.00;;;;;;;;;;5029031;28;20029;-76
2022/11/14 07:48:42;;;;;;;27.27;15.73;;;;;;;;;;5014313;28;20038;-75
2022/11/14 07:51:16;;;;;;;24.77;15.87;;;;;;;;;;5015344;28;20512;-75
2022/11/14 07:53:42;;;;;;;27.20;14.93;;;;;;;;;;5016162;28;20184;-76
2022/11/14 07:56:08;;;;;;;25.57;14.87;;;;;;;;;;5018973;28;20030;-76
2022/11/14 07:58:35;;;;;;;24.53;14.07;;;;;;;;;;5030654;28;20033;-76
2022/11/14 08:01:02;;;;;;;24.90;14.27;;;;;;;;;;5017819;28;20041;-76
2022/11/14 08:03:28;;;;;;;27.10;15.40;;;;;;;;;;5035672;28;20034;-75
2022/11/14 08:06:08;;;;;;;23.53;13.80;;;;;;;;;;5034843;28;20037;-76
2022/11/14 08:08:34;;;;;;;26.73;15.17;;;;;;;;;;5032545;28;20033;-76
2022/11/14 08:11:00;;;;;;;27.67;15.90;;;;;;;;;;5031447;28;20034;-76
2022/11/14 08:13:27;;;;;;;32.20;16.83;;;;;;;;;;5027725;28;20466;-76
2022/11/14 08:15:53;;;;;;;34.30;18.43;;;;;;;;;;5029941;28;20045;-77
2022/11/14 08:18:19;;;;;;;22.17;14.40;;;;;;;;;;5015383;28;20068;-77
2022/11/14 08:20:46;;;;;;;21.77;13.53;;;;;;;;;;5019344;28;20040;-76
2022/11/14 08:23:12;;;;;;;23.33;13.83;;;;;;;;;;5029929;28;20042;-76
2022/11/14 08:25:38;;;;;;;28.17;14.93;;;;;;;;;;5027166;28;20037;-76
2022/11/14 08:28:04;;;;;;;22.20;13.67;;;;;;;;;;5016818;28;20359;-77
2022/11/14 08:30:30;;;;;;;23.43;14.33;;;;;;;;;;5034093;28;20076;-76
2022/11/14 08:32:56;;;;;;;19.73;12.97;;;;;;;;;;5017451;28;20030;-76
2022/11/14 08:35:23;;;;;;;21.07;13.80;;;;;;;;;;5019441;28;20136;-76
2022/11/14 08:37:49;;;;;;;26.07;14.33;;;;;;;;;;5029204;28;20030;-75
2022/11/14 08:40:15;;;;;;;25.70;14.77;;;;;;;;;;5029490;28;20053;-77
2022/11/14 08:42:41;;;;;;;24.20;14.57;;;;;;;;;;5016750;28;20068;-76
2022/11/14 08:45:07;;;;;;;23.40;14.57;;;;;;;;;;5017385;28;20061;-74
2022/11/14 08:47:33;;;;;;;29.30;15.50;;;;;;;;;;5017186;28;20037;-76
2022/11/14 08:49:59;;;;;;;29.77;16.10;;;;;;;;;;5014621;28;20463;-76
2022/11/14 08:52:25;;;;;;;26.50;15.23;;;;;;;;;;5017891;28;20061;-76
2022/11/14 08:54:54;;;;;;;29.13;17.17;;;;;;;;;;5024293;28;20129;-74
2022/11/14 08:57:20;;;;;;;23.90;15.37;;;;;;;;;;5016200;28;20029;-76
2022/11/14 08:59:46;;;;;;;25.00;15.40;;;;;;;;;;5024497;28;20045;-76
2022/11/14 09:02:12;;;;;;;32.50;17.20;;;;;;;;;;5035221;28;20026;-76
2022/11/14 09:04:41;;;;;;;29.93;15.60;;;;;;;;;;5024975;28;20029;-75
2022/11/14 09:07:07;;;;;;;28.97;16.93;;;;;;;;;;5024691;28;20073;-76
2022/11/14 09:09:33;;;;;;;25.00;15.27;;;;;;;;;;5024038;28;20113;-76
2022/11/14 09:11:59;;;;;;;30.13;16.40;;;;;;;;;;5030266;28;20061;-75
2022/11/14 09:14:26;;;;;;;28.87;15.83;;;;;;;;;;5017063;28;20037;-77
2022/11/14 09:16:52;;;;;;;24.97;15.87;;;;;;;;;;5034305;28;20478;-76
2022/11/14 09:19:18;;;;;;;28.13;16.40;;;;;;;;;;5016929;28;20111;-75
2022/11/14 09:21:44;;;;;;;25.83;15.60;;;;;;;;;;5017799;28;20033;-77
2022/11/14 09:24:10;;;;;;;29.00;15.87;;;;;;;;;;5025161;28;20044;-76
2022/11/14 09:26:36;;;;;;;28.53;16.83;;;;;;;;;;5017065;28;20064;-75
2022/11/14 09:29:03;;;;;;;26.93;15.20;;;;;;;;;;5027556;28;20052;-77
2022/11/14 09:31:29;;;;;;;28.40;16.60;;;;;;;;;;5017140;28;20172;-76
2022/11/14 09:33:55;;;;;;;25.83;16.30;;;;;;;;;;5019185;28;20113;-76
2022/11/14 09:36:23;;;;;;;28.67;17.10;;;;;;;;;;5027251;28;20156;-75
2022/11/14 09:38:50;;;;;;;25.00;15.87;;;;;;;;;;5024593;28;20116;-75
2022/11/14 09:41:40;;;;;;;27.47;16.53;;;;;;;;;;5015306;28;20438;-75
2022/11/14 09:44:25;;;;;;;27.57;16.03;;;;;;;;;;5023323;28;20033;-76
2022/11/14 09:46:58;;;;;;;29.63;16.23;;;;;;;;;;5025731;28;20037;-76
2022/11/14 09:49:37;;;;;;;27.40;16.63;;;;;;;;;;5019580;28;20030;-76
2022/11/14 09:52:14;;;;;;;27.23;15.10;;;;;;;;;;5016521;28;20034;-77
2022/11/14 09:54:45;;;;;;;32.90;16.30;;;;;;;;;;5034014;28;20458;-77
2022/11/14 09:57:18;;;;;;;25.00;14.63;;;;;;;;;;5017664;28;20029;-76
2022/11/14 09:59:44;;;;;;;27.37;16.07;;;;;;;;;;5027444;28;20367;-76
2022/11/14 10:02:23;;;;;;;27.20;15.90;;;;;;;;;;5028885;28;20040;-76
2022/11/14 10:05:09;;;;;;;28.40;16.13;;;;;;;;;;5016628;28;20447;-77
2022/11/14 10:07:38;;;;;;;24.63;14.73;;;;;;;;;;5029276;28;20096;-76
2022/11/14 10:10:04;;;;;;;26.23;15.63;;;;;;;;;;5013555;28;20120;-75
2022/11/14 10:12:50;;;;;;;29.00;15.73;;;;;;;;;;5015797;28;20033;-75
2022/11/14 10:15:19;;;;;;;27.60;15.27;;;;;;;;;;5014906;28;21776;-76
2022/11/14 10:17:46;;;;;;;28.17;15.83;;;;;;;;;;5030944;28;20025;-76
2022/11/14 10:20:12;;;;;;;26.20;15.80;;;;;;;;;;5020020;28;20034;-76
2022/11/14 10:22:57;;;;;;;25.07;15.13;;;;;;;;;;5015026;28;20618;-76
2022/11/14 10:25:30;;;;;;;27.13;15.20;;;;;;;;;;5015135;28;20045;-76
2022/11/14 10:28:15;;;;;;;26.63;14.97;;;;;;;;;;5013891;28;20073;-76
2022/11/14 10:30:54;;;;;;;23.23;14.63;;;;;;;;;;5026523;28;20029;-77
2022/11/14 10:33:34;;;;;;;30.50;14.93;;;;;;;;;;5014619;28;20053;-77
2022/11/14 10:35:59;;;;;;;24.87;14.30;;;;;;;;;;5028413;28;20065;-76
2022/11/14 10:38:37;;;;;;;26.23;15.23;;;;;;;;;;5017385;28;20075;-77
2022/11/14 10:41:09;;;;;;;29.83;16.40;;;;;;;;;;5015399;28;20052;-75
2022/11/14 10:43:44;;;;;;;25.20;14.93;;;;;;;;;;5028525;28;20038;-77
2022/11/14 10:46:30;;;;;;;24.17;14.37;;;;;;;;;;5015375;28;20021;-75
2022/11/14 10:48:55;;;;;;;28.17;15.23;;;;;;;;;;5021945;28;20621;-76
2022/11/14 10:51:43;;;;;;;25.60;15.20;;;;;;;;;;5032893;28;20030;-75
2022/11/14 10:54:09;;;;;;;30.63;16.40;;;;;;;;;;5014937;28;20107;-76
2022/11/14 10:56:35;;;;;;;25.33;15.07;;;;;;;;;;5015906;28;20409;-76
2022/11/14 10:59:01;;;;;;;28.90;16.23;;;;;;;;;;5015805;28;20381;-75
2022/11/14 11:01:39;;;;;;;26.50;15.87;;;;;;;;;;5024699;28;20048;-76
2022/11/14 11:04:11;;;;;;;28.00;15.20;;;;;;;;;;5016058;28;20064;-76
2022/11/14 11:06:39;;;;;;;27.10;16.30;;;;;;;;;;5022316;28;20044;-76
2022/11/14 11:12:00;;;;;;;26.73;16.50;;;;;;;;;;5013611;28;20584;-75
2022/11/14 11:14:28;;;;;;;32.60;16.50;;;;;;;;;;5013136;28;20021;-75
2022/11/14 11:17:14;;;;;;;32.33;17.00;;;;;;;;;;5030351;28;20025;-76
2022/11/14 11:19:40;;;;;;;29.40;16.67;;;;;;;;;;5013762;28;20030;-76
2022/11/14 11:22:26;;;;;;;26.23;15.77;;;;;;;;;;5015299;28;20025;-76
2022/11/14 11:24:52;;;;;;;27.60;15.63;;;;;;;;;;5021940;28;20064;-76
2022/11/14 11:27:19;;;;;;;27.73;16.53;;;;;;;;;;5016708;28;20343;-76
2022/11/14 11:29:45;;;;;;;26.63;15.67;;;;;;;;;;5013838;28;20476;-76
2022/11/14 11:32:20;;;;;;;32.63;18.57;;;;;;;;;;5014858;28;20034;-75
2022/11/14 11:34:46;;;;;;;26.03;14.47;;;;;;;;;;5027459;28;20125;-76
2022/11/14 11:37:15;;;;;;;26.80;14.87;;;;;;;;;;5014221;28;20037;-74
2022/11/14 11:39:45;;;;;;;35.53;15.70;;;;;;;;;;5022168;28;20060;-75
2022/11/14 11:42:17;;;;;;;31.17;16.20;;;;;;;;;;5015398;28;20244;-75
2022/11/14 11:44:47;;;;;;;30.30;15.35;;;;;;;;;;5013897;28;20113;-76
2022/11/14 11:47:14;;;;;;;31.30;17.43;;;;;;;;;;5012982;28;20098;-76
2022/11/14 11:49:45;;;;;;;28.17;16.10;;;;;;;;;;5021685;28;20031;-76
2022/11/14 11:52:23;;;;;;;28.10;15.70;;;;;;;;;;5016164;28;20995;-75
2022/11/14 11:55:07;;;;;;;32.57;17.23;;;;;;;;;;5014435;28;20105;-76
2022/11/14 11:57:42;;;;;;;32.43;17.17;;;;;;;;;;5013885;28;20033;-75
2022/11/14 12:00:19;;;;;;;29.13;16.43;;;;;;;;;;5013493;28;20787;-76
2022/11/14 12:02:46;;;;;;;31.07;16.70;;;;;;;;;;5015850;28;20491;-76
2022/11/14 12:05:15;;;;;;;30.33;16.93;;;;;;;;;;5019872;28;21639;-76
2022/11/14 12:07:44;;;;;;;33.07;16.87;;;;;;;;;;5025457;28;20030;-75
2022/11/14 12:10:22;;;;;;;30.93;17.57;;;;;;;;;;5014276;28;20512;-75
2022/11/14 12:13:00;;;;;;;26.33;16.33;;;;;;;;;;5028788;28;20049;-75
2022/11/14 12:15:38;;;;;;;24.80;16.10;;;;;;;;;;5015713;28;20022;-77
2022/11/14 12:18:10;;;;;;;31.80;16.50;;;;;;;;;;5027781;28;20037;-75
2022/11/14 12:20:44;;;;;;;25.27;16.20;;;;;;;;;;5012647;28;20037;-76
2022/11/14 12:23:26;;;;;;;29.87;16.60;;;;;;;;;;5021206;28;20033;-76
2022/11/14 12:26:05;;;;;;;26.87;16.07;;;;;;;;;;5014723;28;20046;-75
2022/11/14 12:28:37;;;;;;;32.43;17.30;;;;;;;;;;5012818;28;20103;-76
2022/11/14 12:31:05;;;;;;;30.17;17.17;;;;;;;;;;5023929;28;20045;-76
2022/11/14 12:33:37;;;;;;;38.20;16.30;;;;;;;;;;5021962;28;20038;-76
2022/11/14 12:36:05;;;;;;;35.72;17.02;;;;;;;;;;5029878;28;20029;-76
2022/11/14 12:38:34;;;;;;;28.97;15.60;;;;;;;;;;5024466;28;20617;-76
2022/11/14 12:41:01;;;;;;;26.97;15.40;;;;;;;;;;5017642;28;20037;-75
2022/11/14 12:43:33;;;;;;;29.97;17.37;;;;;;;;;;5019559;28;20030;-76
2022/11/14 12:46:00;;;;;;;30.88;16.55;;;;;;;;;;5017438;28;20033;-75
2022/11/14 12:48:25;;;;;;;27.70;16.33;;;;;;;;;;5019955;28;20087;-77
2022/11/14 12:50:55;;;;;;;29.90;16.80;;;;;;;;;;5018072;28;20109;-76
2022/11/14 12:53:36;;;;;;;30.73;16.77;;;;;;;;;;5025081;28;20049;-75
2022/11/14 12:56:08;;;;;;;29.00;16.23;;;;;;;;;;5018440;28;20038;-76
2022/11/14 12:58:46;;;;;;;27.08;16.42;;;;;;;;;;5016179;28;20453;-76
2022/11/14 13:01:16;;;;;;;36.63;16.03;;;;;;;;;;5017557;28;20604;-76
2022/11/14 13:03:48;;;;;;;32.63;16.00;;;;;;;;;;5027958;28;20045;-75
2022/11/14 13:06:21;;;;;;;29.60;15.82;;;;;;;;;;5016997;28;20037;-76
2022/11/14 13:08:47;;;;;;;28.80;16.60;;;;;;;;;;5029011;28;20030;-76
2022/11/14 13:21:44;;;;;;;27.33;15.90;;;;;;;;;;5017881;28;20921;-75
2022/11/14 13:22:46;;;;;;;27.30;16.10;;;;;;;;;;5019959;28;20040;-75
2022/11/14 13:25:17;;;;;;;26.40;15.57;;;;;;;;;;5030835;28;20034;-76
2022/11/14 13:27:44;;;;;;;30.97;17.07;;;;;;;;;;5016563;28;20140;-75
2022/11/14 13:30:12;;;;;;;34.40;16.93;;;;;;;;;;5029730;28;20096;-76
2022/11/14 13:32:41;;;;;;;33.17;17.37;;;;;;;;;;5014595;28;20018;-76
2022/11/14 13:35:32;;;;;;;29.33;17.43;;;;;;;;;;5015396;28;20030;-76
2022/11/14 13:38:01;;;;;;;29.93;17.23;;;;;;;;;;5014681;28;20034;-76
2022/11/14 13:40:32;;;;;;;28.60;16.10;;;;;;;;;;5017141;28;20172;-75
2022/11/14 13:43:17;;;;;;;31.02;17.10;;;;;;;;;;5015357;28;20798;-76
2022/11/14 13:45:49;;;;;;;28.20;16.57;;;;;;;;;;5023811;28;20033;-76
2022/11/14 13:48:34;;;;;;;29.88;17.00;;;;;;;;;;5016369;28;20038;-76
2022/11/14 13:51:02;;;;;;;31.87;17.13;;;;;;;;;;5021897;28;20041;-76
2022/11/14 13:53:29;;;;;;;26.97;15.77;;;;;;;;;;5016482;28;20034;-75
2022/11/14 13:56:00;;;;;;;29.93;16.77;;;;;;;;;;5024213;28;20092;-76
2022/11/14 13:58:38;;;;;;;28.00;15.83;;;;;;;;;;5029872;28;20033;-75
2022/11/14 14:01:23;;;;;;;25.87;15.37;;;;;;;;;;5020173;28;20825;-76
2022/11/14 14:03:55;;;;;;;30.43;15.87;;;;;;;;;;5019623;28;20220;-75
2022/11/14 14:06:34;;;;;;;26.85;15.98;;;;;;;;;;5032570;28;20049;-75
2022/11/14 14:09:08;;;;;;;32.80;16.30;;;;;;;;;;5032656;28;20034;-75
2022/11/14 14:11:49;;;;;;;27.13;15.63;;;;;;;;;;5024242;28;20041;-76
2022/11/14 14:14:31;;;;;;;29.47;16.77;;;;;;;;;;5017865;28;20346;-75
2022/11/14 14:17:04;;;;;;;31.20;16.33;;;;;;;;;;5015617;28;20033;-75
2022/11/14 14:19:32;;;;;;;30.60;17.47;;;;;;;;;;5029915;28;20018;-76
2022/11/14 14:22:07;;;;;;;30.37;17.37;;;;;;;;;;5017540;28;20029;-76
2022/11/14 14:24:45;;;;;;;32.00;18.07;;;;;;;;;;5029122;28;20018;-75
2022/11/14 14:27:31;;;;;;;33.13;17.37;;;;;;;;;;5022921;28;20905;-74
2022/11/14 14:30:09;;;;;;;31.90;18.63;;;;;;;;;;5029490;28;20109;-75
2022/11/14 14:32:35;;;;;;;29.90;16.83;;;;;;;;;;5017141;28;20044;-75
2022/11/14 14:35:20;;;;;;;31.43;17.73;;;;;;;;;;5017028;28;20718;-75
2022/11/14 14:37:54;;;;;;;30.13;17.23;;;;;;;;;;5021409;28;20649;-76
2022/11/14 14:40:27;;;;;;;35.70;21.43;;;;;;;;;;5024234;28;20025;-75
2022/11/14 14:42:56;;;;;;;31.60;18.47;;;;;;;;;;5028861;28;20191;-75